Wednesday, January 17, 2018, 9:54 AM EST
Back to Local

KNEL, Lakehurst Naval Air Station

Location: Lakehurst, NJ, United States Lat: 40.033
Local Time: 9:54 AM EST (14:54 GMT) Lon: -74.317
Time Zone: US/Eastern Elev: 101 ft

Show me the last for .
Show Decoded

2018-01-17 09:00 METAR KNEL 171400Z AUTO 30007KT 3/4SM -SN BR OVC007 01/00 A3026 RMK AO2 SLP247
                 T00060000 FZRANO PNO $ =
2018-01-17 08:22 METAR KNEL 171322Z AUTO 30004KT 1SM -SN BR BKN006 BKN011 OVC020 01/01 A3026 RMK
                 AO2 T00060006 FZRANO PNO $ =
2018-01-17 08:00 METAR KNEL 171300Z AUTO 31006KT 1/2SM SN FG BKN005 OVC019 01/01 A3025 RMK AO2
                 UPE1203SNB1203 SLP243 T00060006 FZRANO PNO $ =
2018-01-17 07:12 METAR KNEL 171212Z AUTO 31006KT 1 3/4SM -SN BR OVC005 01/01 A3024 RMK AO2
                 UPE03SNB03 T00060006 FZRANO PNO $ =
2018-01-17 07:00 METAR KNEL 171200Z AUTO 31005KT 4SM UP BR OVC005 01/01 A3024 RMK AO2
                 RAE1151UPB1151 SLP240 6//// 7//// T00110006 10022 20011 50003 FZRANO PNO $ =
2018-01-17 06:22 METAR KNEL 171122Z AUTO 30006KT 3SM -RA BR OVC005 01/01 A3024 RMK AO2 T00110011
                 FZRANO PNO $ =
2018-01-17 06:06 METAR KNEL 171106Z AUTO 31004KT 2 1/2SM -RA BR OVC005 01/01 A3024 RMK AO2
                 UPB1044E1050 SLP241 T00110011 FZRANO PNO $ =
2018-01-17 06:00 METAR KNEL 171100Z AUTO 30005KT 2 1/2SM -RA BR OVC005 01/01 A3024 RMK AO2
                 UPB1044E1050 FZRANO PNO $ =
2018-01-17 05:07 METAR KNEL 171007Z AUTO 31005KT 2 1/2SM RA BR OVC004 01/01 A3024 RMK AO2
                 T00110006 FZRANO PNO $ =
2018-01-17 05:00 METAR KNEL 171000Z AUTO 31004KT 3SM -RA BR OVC004 01/01 A3024 RMK AO2
                 UPE0919RAB0919 SLP239 T00110006 FZRANO PNO $ =
2018-01-17 04:46 METAR KNEL 170946Z AUTO 30005KT 3SM -RA BR OVC004 01/01 A3023 RMK AO2 UPE19RAB19
                 T00110011 FZRANO PNO $ =
2018-01-17 04:00 METAR KNEL 170900Z AUTO 31004KT 3SM UP BR OVC003 02/02 A3023 RMK AO2
                 UPE0823B0838RAB0823E0838 SLP237 6//// T00170017 56009 FZRANO PNO $ =
2018-01-17 03:57 METAR KNEL 170857Z AUTO 31004KT 3SM UP BR OVC003 02/02 A3023 RMK AO2
                 UPE23B38RAB23E38 FZRANO PNO $ =
2018-01-17 03:50 METAR KNEL 170850Z AUTO 31004KT 2 1/2SM UP BR OVC003 02/02 A3023 RMK AO2
                 UPE23B38RAB23E38 T00170017 FZRANO PNO $ =
2018-01-17 03:15 METAR KNEL 170815Z AUTO 31003KT 3SM UP BR OVC004 02/02 A3024 =
2018-01-17 03:00 METAR KNEL 170800Z AUTO 32004KT 4SM UP BR OVC005 02/02 A3024 RMK AO2 UPB0703
                 SLP238 T00220017 FZRANO PNO $ =
2018-01-17 02:00 METAR KNEL 170700Z AUTO 00000KT 8SM OVC008 02/01 A3025 RMK AO2 SLP244 T00220011
                 FZRANO PNO $ =
2018-01-17 01:21 METAR KNEL 170621Z AUTO 00000KT 10SM BKN011 OVC034 02/01 A3026 RMK AO2 T00170006
                 FZRANO PNO $ =
2018-01-17 01:00 METAR KNEL 170600Z AUTO 00000KT 10SM BKN033 OVC055 02/01 A3026 RMK AO2 SLP246
                 6//// T00220011 10022 21017 57017 FZRANO PNO $ =
2018-01-17 00:00 METAR KNEL 170500Z AUTO 00000KT 10SM FEW034 00/M01 A3028 RMK AO2 SLP253
                 T00001006 400000000 FZRANO PNO $ =
2018-01-16 23:00 METAR KNEL 170400Z AUTO 07004KT 10SM SCT017 01/00 A3031 RMK AO2 SLP261 T00110000
                 FZRANO PNO $ =
2018-01-16 22:58 METAR KNEL 170358Z AUTO 07004KT 10SM SCT017 01/00 A3030 RMK AO2 FZRANO PNO $ =
2018-01-16 22:45 METAR KNEL 170345Z AUTO 08004KT 10SM BKN017 OVC037 01/00 A3031
2018-01-16 22:00 METAR KNEL 170300Z AUTO 08003KT 10SM FEW029 OVC037 01/M01 A3033 RMK AO2 SLP270
                 6//// T00061006 58012 FZRANO PNO $ =
2018-01-16 21:00 METAR KNEL 170200Z AUTO 00000KT 10SM OVC035 00/M01 A3034 RMK AO2 SLP273
                 T00001011 FZRANO PNO $ =
2018-01-16 20:00 METAR KNEL 170100Z AUTO 00000KT 10SM BKN032 M02/M02 A3036 RMK AO2 SLP280
                 T10171022 FZRANO PNO $ =
2018-01-16 19:27 METAR KNEL 170027Z AUTO 00000KT 10SM OVC031 M01/M01 A3036 RMK AO2 T10061011
                 FZRANO PNO $ 
2018-01-16 19:06 METAR KNEL 170006Z AUTO 00000KT 10SM BKN029 M01/M01 A3037 RMK AO2 SLP285 6////
                 T10061011 10050 21011 55003 FZRANO PNO $ =
2018-01-16 19:00 METAR KNEL 170000Z AUTO 00000KT 10SM BKN029 M01/M01 A3037 RMK AO2 FZRANO PNO $ =
2018-01-16 18:00 METAR KNEL 162300Z AUTO 00000KT 10SM CLR 00/M01 A3038 RMK AO2 SLP286 T00001006
                 FZRANO PNO $ =
2018-01-16 17:00 METAR KNEL 162200Z AUTO 11004KT 10SM CLR 03/01 A3037 RMK AO2 SLP283 T00330006
                 PNO $ =
2018-01-16 16:00 METAR KNEL 162100Z AUTO 11006KT 10SM CLR 04/01 A3038 RMK AO2 SLP286 6////
                 T00390006 56013 PNO $ =
2018-01-16 15:00 METAR KNEL 162000Z AUTO 14007KT 10SM CLR 05/01 A3038 RMK AO2 SLP289 T00500006
                 PNO $ =
2018-01-16 14:00 METAR KNEL 161900Z AUTO 12009KT 10SM FEW021 BKN026 BKN031 05/01 A3040 RMK AO2
                 SLP293 T00500006 PNO $ =
2018-01-16 13:00 METAR KNEL 161800Z AUTO 13009KT 10SM SCT023 04/00 A3041 RMK AO2 SLP296 6////
                 T00440000 10050 21011 57010 PNO $ =
2018-01-16 12:06 METAR KNEL 161706Z AUTO 11006KT 10SM BKN023 04/M01 A3042 RMK AO2 SLP302
                 T00441006 PNO $ =
2018-01-16 12:00 METAR KNEL 161700Z AUTO 13007KT 10SM BKN023 04/00 A3042 RMK AO2 PNO $ =
2018-01-16 11:51 METAR KNEL 161651Z AUTO 12004KT 10SM SCT023 05/00 A3043 =
2018-01-16 11:11 METAR KNEL 161611Z AUTO 09006KT 10SM BKN017 BKN031 04/00 A3045 RMK AO2 T00440000
                 PNO $ =
2018-01-16 11:00 METAR KNEL 161600Z AUTO 15005KT 10SM SCT017 BKN031 04/M01 A3045 RMK AO2 SLP312
                 T00391006 PNO $ =
2018-01-16 10:47 METAR KNEL 161547Z AUTO 09006KT 10SM BKN015 BKN031 04/00 A3046 RMK AO2 T00390000
                 PNO $ =
2018-01-16 10:00 METAR KNEL 161500Z AUTO 10008KT 10SM BKN031 02/M01 A3047 RMK AO2 SLP318 6////
                 T00221006 50004 FZRANO PNO $ =

Support USWX by starting your Amazon purchase here.